Aviation Digital Data Service (ADDS)

Output produced by METARs form (2228 UTC 26 March 2015)
found at http://aviationweather.gov/adds/metars/
 
KPGV 262030Z 2621/2718 22010G17KT P6SM SCT025 BKN050 
     FM270000 20008KT P6SM OVC150 
     FM270700 21009KT 5SM -RA BR OVC008 AMD LTD TO CLD VIS AND WIND